Latest Weather Observations for Aireys Inlet

IDV60801

Issued at 3:05 pm EST Wednesday 17 September 2014 (issued every 30 minutes, with the page automatically refreshed every 10 minutes)

About weather observations | Map of weather stations | Latest weather observations for VIC | Other Formats
Station Details ID: 090180 Name: AIREYS INLET Lat: -38.46 Lon: 144.09 Height: 95.0 m
Data from the previous 72 hours. | See also: Recent months at Aireys Inlet
Date/Time
EST
Temp
°C
App
Temp
°C
Dew
Point
Rel
Hum
%
Delta-T
°C
Wind Press
QNH
hPa
Press
MSL
hPa
Rain
since 9 am
mm
Dir
 
Spd
km/h
Gust
km/h
Spd
kts
Gust
kts
17/03:00pm 10.9 3.7 4.8 66 2.8 SW 32 46 17 25 - - 0.4
17/02:44pm 12.9 6.7 6.3 64 3.2 SW 28 48 15 26 - - 0.4
17/02:30pm 11.4 5.9 5.9 69 2.6 SW 24 35 13 19 - - 0.4
17/02:00pm 11.2 4.1 6.3 72 2.3 WSW 33 46 18 25 - - 0.4
17/01:43pm 10.7 4.4 5.9 72 2.2 SW 28 50 15 27 - - 0.0
17/01:30pm 11.1 5.8 6.6 74 2.1 SSW 24 39 13 21 - - 0.0
17/01:20pm 12.0 5.2 6.7 70 2.5 WSW 32 52 17 28 - - 0.0
17/01:00pm 11.9 5.2 5.5 65 3.0 SW 30 44 16 24 - - 0.0
17/12:45pm 12.5 5.9 6.1 65 3.0 WSW 30 48 16 26 - - 0.0
17/12:30pm 11.9 4.7 6.0 67 2.8 W 33 50 18 27 - - 0.0
17/12:09pm 11.2 4.9 5.5 68 2.6 W 28 46 15 25 - - 0.0
17/12:00pm 11.4 3.2 4.8 64 3.0 WSW 37 52 20 28 - - 0.0
17/11:30am 12.8 6.4 5.0 59 3.6 W 28 50 15 27 - - 0.0
17/11:03am 11.8 5.4 5.4 65 3.0 W 28 48 15 26 - - 0.0
17/11:00am 11.7 5.9 6.2 69 2.6 W 26 37 14 20 - - 0.0
17/10:30am 12.1 6.6 5.7 65 3.0 WSW 24 39 13 21 - - 0.0
17/10:00am 12.3 6.2 6.4 67 2.8 W 28 44 15 24 - - 0.0
17/09:30am 11.6 6.9 7.7 77 1.9 W 22 33 12 18 - - 0.0
17/09:00am 10.5 6.7 7.6 82 1.4 W 17 28 9 15 - - 0.4
17/08:30am 10.4 6.2 7.3 81 1.5 W 19 30 10 16 - - 0.4
17/08:00am 9.6 6.2 7.5 87 1.0 WNW 15 24 8 13 - - 0.4
17/07:30am 9.7 6.2 7.1 84 1.2 W 15 26 8 14 - - 0.4
17/07:00am 9.4 6.8 7.7 89 0.8 NW 11 17 6 9 - - 0.4
17/06:30am 9.2 5.3 7.2 87 0.9 WNW 17 26 9 14 - - 0.4
17/06:00am 8.9 6.6 7.5 91 0.7 WNW 9 13 5 7 - - 0.4
17/05:30am 9.0 6.1 8.1 94 0.4 WNW 13 17 7 9 - - 0.4
17/05:00am 9.3 6.4 8.1 92 0.6 W 13 20 7 11 - - 0.4
17/04:30am 9.2 5.9 8.0 92 0.6 WNW 15 24 8 13 - - 0.4
17/04:00am 9.3 8.1 8.1 92 0.6 W 4 13 2 7 - - 0.4
17/03:30am 9.2 8.0 8.0 92 0.6 WNW 4 9 2 5 - - 0.2
17/03:00am 8.8 6.5 7.4 91 0.7 NW 9 19 5 10 - - 0.2
17/02:30am 8.9 6.2 7.5 91 0.7 NW 11 19 6 10 - - 0.2
17/02:00am 9.2 5.2 8.1 93 0.5 WNW 19 26 10 14 - - 0.2
17/01:30am 9.0 5.3 8.1 94 0.4 NW 17 24 9 13 - - 0.2
17/01:00am 8.7 6.5 7.8 94 0.4 WNW 9 17 5 9 - - 0.2
17/12:30am 8.8 7.0 8.0 95 0.4 WSW 7 15 4 8 - - 0.2
17/12:00am 9.1 8.2 7.9 92 0.6 S 2 7 1 4 - - 0.2
 
Date/Time
EST
Temp
°C
App
Temp
°C
Dew
Point
Rel
Hum
%
Delta-T
°C
Wind Press
QNH
hPa
Press
MSL
hPa
Rain
since 9 am
mm
Dir
 
Spd
km/h
Gust
km/h
Spd
kts
Gust
kts
16/11:30pm 9.2 8.3 7.8 91 0.7 W 2 7 1 4 - - 0.2
16/11:00pm 10.1 7.6 8.4 89 0.8 WNW 11 17 6 9 - - 0.2
16/10:30pm 9.9 7.0 8.3 90 0.8 WNW 13 20 7 11 - - 0.2
16/10:00pm 9.4 6.2 8.5 94 0.4 NW 15 17 8 9 - - 0.2
16/09:30pm 9.3 8.0 7.7 90 0.8 NNW 4 9 2 5 - - 0.2
16/09:00pm 9.6 8.1 6.9 83 1.3 WNW 4 9 2 5 - - 0.0
16/08:30pm 9.8 6.6 6.7 81 1.5 WNW 13 17 7 9 - - 0.0
16/08:00pm 10.0 6.7 6.5 79 1.6 WNW 13 19 7 10 - - 0.0
16/07:30pm 10.1 6.8 6.3 77 1.8 W 13 17 7 9 - - 0.0
16/07:00pm 10.3 7.3 6.1 75 2.0 W 11 17 6 9 - - 0.0
16/06:30pm 10.7 6.2 5.9 72 2.2 W 19 24 10 13 - - 0.0
16/06:00pm 11.7 7.6 6.0 68 2.7 WSW 17 24 9 13 - - 0.0
16/05:30pm 13.0 8.0 6.4 64 3.2 SW 22 35 12 19 - - 0.0
16/05:00pm 13.2 8.9 9.3 77 2.0 SSW 22 35 12 19 - - 0.0
16/04:30pm 12.5 7.4 9.3 81 1.6 SW 26 37 14 20 - - 0.0
16/04:00pm 13.3 8.6 9.2 76 2.1 SW 24 35 13 19 - - 0.0
16/03:30pm 13.5 8.2 9.7 78 2.0 SW 28 37 15 20 - - 0.0
16/03:00pm 12.9 7.6 9.7 81 1.6 SW 28 44 15 24 - - 0.0
16/02:33pm 13.0 7.8 10.2 83 1.5 SSW 28 52 15 28 - - 0.0
16/02:30pm 13.2 8.0 10.2 82 1.6 SSW 28 46 15 25 - - 0.0
16/02:00pm 13.4 9.0 10.4 82 1.6 SW 24 37 13 20 - - 0.0
16/01:30pm 14.0 9.9 10.2 78 2.0 SW 22 33 12 18 - - 0.0
16/01:00pm 14.1 9.8 10.7 80 1.8 SW 24 35 13 19 - - 0.0
16/12:30pm 12.8 6.9 10.5 86 1.2 SW 32 44 17 24 - - 0.0
16/12:00pm 12.5 6.6 10.4 87 1.1 SW 32 50 17 27 - - 0.0
16/11:34am 12.1 5.1 11.2 94 0.5 SW 39 59 21 32 - - 0.0
16/11:30am 12.0 5.3 11.1 94 0.5 SW 37 54 20 29 - - 0.0
16/11:16am 12.4 6.3 11.6 95 0.4 SW 35 54 19 29 - - 0.0
16/11:00am 12.4 6.7 11.8 96 0.3 SW 33 50 18 27 - - 0.0
16/10:46am 13.3 8.3 12.2 93 0.6 SW 30 54 16 29 - - 0.0
16/10:30am 13.2 8.3 11.3 88 1.0 SW 28 43 15 23 - - 0.0
16/10:00am 13.4 8.7 12.1 92 0.7 SW 28 37 15 20 - - 0.0
16/09:30am 13.0 8.9 12.8 99 0.1 SW 26 37 14 20 - - 0.0
16/09:00am 12.4 7.4 12.2 99 0.1 SW 30 44 16 24 - - 0.4
16/08:30am 12.6 8.0 12.4 99 0.1 SW 28 43 15 23 - - 0.4
16/08:00am 12.6 8.8 12.4 99 0.1 SW 24 35 13 19 - - 0.4
16/07:30am 12.4 8.1 12.2 99 0.1 SW 26 39 14 21 - - 0.4
16/07:00am 12.4 9.2 11.8 96 0.3 SW 20 32 11 17 - - 0.4
16/06:30am 12.2 9.0 11.3 94 0.5 SW 19 28 10 15 - - 0.4
16/06:00am 12.1 8.7 11.2 94 0.5 SW 20 28 11 15 - - 0.4
16/05:30am 11.9 9.5 11.3 96 0.3 WSW 15 22 8 12 - - 0.4
16/05:00am 11.9 9.1 11.4 97 0.3 WSW 17 22 9 12 - - 0.4
16/04:30am 11.8 9.4 11.5 98 0.2 WSW 15 17 8 9 - - 0.2
16/04:00am 11.9 10.3 11.6 98 0.2 SW 11 17 6 9 - - 0.2
16/03:30am 11.8 10.6 11.5 98 0.2 SSW 9 15 5 8 - - 0.2
16/03:00am 11.9 10.7 11.6 98 0.2 S 9 15 5 8 - - 0.2
16/02:30am 11.8 10.9 11.5 98 0.2 S 7 11 4 6 - - 0.2
16/02:00am 11.8 11.0 11.6 99 0.1 S 7 11 4 6 - - 0.2
16/01:30am 11.7 10.8 11.5 99 0.1 S 7 11 4 6 - - 0.2
16/01:00am 11.8 11.0 11.6 99 0.1 S 7 9 4 5 - - 0.2
16/12:30am 11.9 11.1 11.7 99 0.1 S 7 9 4 5 - - 0.2
16/12:00am 12.1 11.6 11.9 99 0.1 S 6 7 3 4 - - 0.2
 
Date/Time
EST
Temp
°C
App
Temp
°C
Dew
Point
Rel
Hum
%
Delta-T
°C
Wind Press
QNH
hPa
Press
MSL
hPa
Rain
since 9 am
mm
Dir
 
Spd
km/h
Gust
km/h
Spd
kts
Gust
kts
15/11:30pm 12.1 11.6 11.9 99 0.1 SSE 6 9 3 5 - - 0.2
15/11:00pm 12.2 11.7 12.2 100 0.0 SSE 6 9 3 5 - - 0.2
15/10:30pm 12.2 11.2 12.2 100 0.0 SSE 9 13 5 7 - - 0.2
15/10:00pm 12.4 12.0 12.4 100 0.0 SSE 6 11 3 6 - - 0.2
15/09:30pm 12.6 11.7 12.6 100 0.0 S 9 15 5 8 - - 0.2
15/09:00pm 12.6 11.3 12.4 99 0.1 S 11 15 6 8 - - 0.0
15/08:30pm 12.6 11.6 12.4 99 0.1 S 9 15 5 8 - - 0.0
15/08:00pm 12.6 11.6 12.4 99 0.1 S 9 13 5 7 - - 0.0
15/07:30pm 12.7 12.1 12.2 97 0.3 SSE 7 11 4 6 - - 0.0
15/07:00pm 12.5 11.9 11.7 95 0.4 SSE 6 9 3 5 - - 0.0
15/06:30pm 12.4 11.7 11.5 94 0.5 SE 6 13 3 7 - - 0.0
15/06:00pm 12.5 11.7 11.6 94 0.5 SE 7 11 4 6 - - 0.0
15/05:30pm 12.5 11.7 11.6 94 0.5 SE 7 15 4 8 - - 0.0
15/05:00pm 12.4 11.1 11.3 93 0.6 SE 9 19 5 10 - - 0.0
15/04:30pm 12.2 10.8 10.8 91 0.7 SE 9 19 5 10 - - 0.0
15/04:00pm 12.3 10.0 10.5 89 0.9 SE 13 20 7 11 - - 0.0
15/03:30pm 12.3 9.9 9.9 85 1.2 SE 13 19 7 10 - - 0.0
15/03:00pm 12.4 10.3 9.8 84 1.3 SE 11 22 6 12 - - 0.0
15/02:30pm 12.4 10.9 10.5 88 1.0 SE 9 20 5 11 - - 0.0
15/02:00pm 12.5 10.6 10.6 88 1.0 SE 11 22 6 12 - - 0.0
15/01:30pm 12.1 10.5 10.3 89 0.9 SE 9 19 5 10 - - 0.0
15/01:00pm 12.5 10.7 10.7 89 0.9 ESE 11 24 6 13 - - 0.0
15/12:30pm 12.8 10.8 10.2 84 1.3 ESE 11 17 6 9 - - 0.0
15/12:00pm 12.5 10.8 9.9 84 1.3 ESE 9 15 5 8 - - 0.0
15/11:30am 12.6 10.6 10.0 84 1.3 ESE 11 19 6 10 - - 0.0
15/11:00am 12.1 10.4 9.8 86 1.2 ESE 9 17 5 9 - - 0.0
15/10:30am 11.9 10.6 10.1 89 0.9 ESE 7 13 4 7 - - 0.0
15/10:00am 11.9 10.6 10.0 88 1.0 ESE 7 15 4 8 - - 0.0
15/09:30am 11.7 10.5 10.3 91 0.7 ESE 7 13 4 7 - - 0.0
15/09:00am 11.3 10.1 10.2 93 0.6 E 7 13 4 7 - - 3.4
15/08:30am 10.9 9.6 10.1 95 0.4 E 7 11 4 6 - - 3.4
15/08:00am 10.7 9.6 10.5 99 0.1 E 7 13 4 7 - - 3.4
15/07:30am 10.6 9.6 10.4 99 0.1 E 6 11 3 6 - - 3.4
15/07:00am 10.5 9.5 10.3 99 0.1 ESE 6 11 3 6 - - 3.4
15/06:30am 10.5 9.3 10.3 99 0.1 E 7 15 4 8 - - 3.0
15/06:00am 10.7 9.5 10.4 98 0.2 E 7 9 4 5 - - 2.4
15/05:30am 11.2 10.1 10.0 92 0.6 E 6 9 3 5 - - 0.4
15/05:00am 11.6 10.2 9.5 87 1.1 E 7 15 4 8 - - 0.0
15/04:30am 11.5 10.1 9.4 87 1.1 E 7 17 4 9 - - 0.0
15/04:00am 11.6 10.2 9.5 87 1.1 ESE 7 11 4 6 - - 0.0
15/03:30am 11.6 9.9 9.7 88 1.0 ESE 9 17 5 9 - - 0.0
15/03:00am 11.4 9.7 10.0 91 0.7 ESE 9 15 5 8 - - 0.0
15/02:30am 11.3 10.1 10.4 94 0.5 ESE 7 11 4 6 - - 0.0
15/02:00am 11.3 10.3 10.4 94 0.5 E 6 9 3 5 - - 0.0
15/01:30am 11.0 9.9 10.1 94 0.5 E 6 7 3 4 - - 0.0
15/01:00am 11.3 10.4 10.7 96 0.3 ESE 6 9 3 5 - - 0.0
15/12:30am 11.2 10.3 10.6 96 0.3 E 6 7 3 4 - - 0.0
15/12:00am 11.2 10.2 10.4 95 0.4 E 6 9 3 5 - - 0.0
 
Date/Time
EST
Temp
°C
App
Temp
°C
Dew
Point
Rel
Hum
%
Delta-T
°C
Wind Press
QNH
hPa
Press
MSL
hPa
Rain
since 9 am
mm
Dir
 
Spd
km/h
Gust
km/h
Spd
kts
Gust
kts
14/11:30pm 11.4 10.5 10.5 94 0.5 ESE 6 9 3 5 - - 0.0
14/11:00pm 11.7 10.7 10.4 92 0.7 SE 6 7 3 4 - - 0.0
14/10:30pm 12.0 11.2 10.9 93 0.6 SE 6 9 3 5 - - 0.0
14/10:00pm 11.8 10.3 10.7 93 0.6 SSE 9 15 5 8 - - 0.0
14/09:30pm 11.6 10.7 10.5 93 0.6 S 6 9 3 5 - - 0.0
14/09:00pm 11.3 10.0 10.0 92 0.7 SW 7 13 4 7 - - 0.0
14/08:30pm 11.3 9.6 10.0 92 0.7 SW 9 13 5 7 - - 0.0
14/08:00pm 11.5 9.9 10.1 91 0.7 SW 9 11 5 6 - - 0.0
14/07:30pm 11.7 9.7 10.3 91 0.7 SSW 11 17 6 9 - - 0.0
14/07:00pm 11.8 9.4 10.0 89 0.9 S 13 17 7 9 - - 0.0
14/06:30pm 11.9 9.6 10.3 90 0.8 SSW 13 20 7 11 - - 0.0
14/06:00pm 12.2 9.4 10.1 87 1.1 SSW 15 20 8 11 - - 0.0
14/05:30pm 12.7 9.6 10.4 86 1.2 SSW 17 22 9 12 - - 0.0
14/05:00pm 13.6 11.2 10.0 79 1.9 S 13 19 7 10 - - 0.0
14/04:30pm 14.9 12.9 10.3 74 2.4 SSW 11 20 6 11 - - 0.0
14/04:00pm 15.9 13.9 10.2 69 3.0 SSW 11 19 6 10 - - 0.0
14/03:30pm 15.5 13.5 10.1 70 2.8 S 11 17 6 9 - - 0.0

Other Formats:

Comma delimited format used in spreadsheet applications
http://www.bom.gov.au/fwo/IDV60801/IDV60801.94846.axf

JavaScript Object Notation format (JSON) in row-major order
http://www.bom.gov.au/fwo/IDV60801/IDV60801.94846.json